createdAt,value
2019-04-05T00:00:09.212Z,9.90
2019-04-05T00:02:38.771Z,9.07
2019-04-05T00:05:08.240Z,9.60
2019-04-05T00:07:37.535Z,7.30
2019-04-05T00:10:07.568Z,7.80
2019-04-05T00:12:36.885Z,8.57
2019-04-05T00:15:15.338Z,8.80
2019-04-05T00:17:40.577Z,7.43
2019-04-05T00:20:10.207Z,9.13
2019-04-05T00:22:39.508Z,8.23
2019-04-05T00:25:09.784Z,12.73
2019-04-05T00:27:39.079Z,10.23
2019-04-05T00:30:09.133Z,10.17
2019-04-05T00:32:38.433Z,10.80
2019-04-05T00:35:07.869Z,11.77
2019-04-05T00:37:37.163Z,12.57
2019-04-05T00:40:08.576Z,13.23
2019-04-05T00:42:37.876Z,15.47
2019-04-05T00:45:08.114Z,18.67
2019-04-05T00:47:37.427Z,18.17
2019-04-05T00:50:08.063Z,18.93
2019-04-05T00:52:37.431Z,18.90
2019-04-05T00:55:07.317Z,21.47
2019-04-05T00:57:36.741Z,25.07
2019-04-05T01:00:07.096Z,20.40
2019-04-05T01:02:37.369Z,25.87
2019-04-05T01:05:07.316Z,26.50
2019-04-05T01:07:36.786Z,25.07
2019-04-05T01:10:07.024Z,26.60
2019-04-05T01:12:38.032Z,27.00
2019-04-05T01:15:09.267Z,30.43
2019-04-05T01:17:39.131Z,30.77
2019-04-05T01:20:09.367Z,34.37
2019-04-05T01:22:40.334Z,37.13
2019-04-05T01:25:09.981Z,35.93
2019-04-05T01:27:42.032Z,37.43
2019-04-05T01:30:14.049Z,36.70
2019-04-05T01:32:43.535Z,39.30
2019-04-05T01:35:13.755Z,36.63
2019-04-05T01:37:43.313Z,41.27
2019-04-05T01:40:13.753Z,37.23
2019-04-05T01:42:43.392Z,41.10
2019-04-05T01:45:32.216Z,46.47
2019-04-05T01:48:01.528Z,49.70
2019-04-05T01:50:31.304Z,44.60
2019-04-05T01:53:00.793Z,51.50
2019-04-05T01:55:30.189Z,46.93
2019-04-05T01:57:59.532Z,56.73
2019-04-05T02:00:28.838Z,58.47
2019-04-05T02:02:58.136Z,57.50
2019-04-05T02:05:27.783Z,55.90
2019-04-05T02:07:57.144Z,57.60
2019-04-05T02:10:26.616Z,65.30
2019-04-05T02:12:55.924Z,65.70
2019-04-05T02:15:28.136Z,62.63
2019-04-05T02:17:59.039Z,67.60
2019-04-05T02:20:28.420Z,72.03
2019-04-05T02:22:57.789Z,61.40
2019-04-05T02:25:27.292Z,74.27
2019-04-05T02:27:56.820Z,66.37
2019-04-05T02:30:26.970Z,77.23
2019-04-05T02:32:56.273Z,78.43
2019-04-05T02:35:26.010Z,74.13
2019-04-05T02:37:55.335Z,67.97
2019-04-05T02:40:26.623Z,68.57
2019-04-05T02:42:58.777Z,70.47
2019-04-05T02:45:31.287Z,59.53
2019-04-05T02:48:03.825Z,65.23
2019-04-05T02:50:36.541Z,59.93
2019-04-05T02:53:09.266Z,63.17
2019-04-05T02:55:40.811Z,53.20
2019-04-05T02:58:13.547Z,51.60
2019-04-05T03:00:44.415Z,53.23
2019-04-05T03:03:14.641Z,48.73
2019-04-05T03:05:46.336Z,43.37
2019-04-05T03:08:17.087Z,40.23
2019-04-05T03:11:06.525Z,44.73
2019-04-05T03:13:38.910Z,40.97
2019-04-05T03:16:14.159Z,37.17
2019-04-05T03:18:48.792Z,36.27
2019-04-05T03:21:20.333Z,36.30
2019-04-05T03:23:51.316Z,46.53
2019-04-05T03:26:23.717Z,33.13
2019-04-05T03:28:56.130Z,32.33
2019-04-05T03:31:26.258Z,31.30
2019-04-05T03:33:56.398Z,29.03
2019-04-05T03:36:26.870Z,34.83
2019-04-05T03:38:56.341Z,33.10
2019-04-05T03:41:26.299Z,30.57
2019-04-05T03:43:56.929Z,28.10
2019-04-05T03:46:26.602Z,32.77
2019-04-05T03:48:56.261Z,29.30
2019-04-05T03:51:25.777Z,26.27
2019-04-05T03:53:55.211Z,30.63
2019-04-05T03:56:24.821Z,25.87
2019-04-05T03:58:54.344Z,23.30
2019-04-05T04:01:23.644Z,26.90
2019-04-05T04:03:53.350Z,23.53
2019-04-05T04:06:23.229Z,24.67
2019-04-05T04:08:53.352Z,23.43
2019-04-05T04:11:22.739Z,30.43
2019-04-05T04:13:52.213Z,27.57
2019-04-05T04:16:22.418Z,26.97
2019-04-05T04:18:52.932Z,29.10
2019-04-05T04:21:34.236Z,29.33
2019-04-05T04:24:03.674Z,32.13
2019-04-05T04:26:33.517Z,27.87
2019-04-05T04:29:03.067Z,30.73
2019-04-05T04:31:33.551Z,34.37
2019-04-05T04:34:03.820Z,32.23
2019-04-05T04:36:33.489Z,35.13
2019-04-05T04:39:04.341Z,31.47
2019-04-05T04:41:33.657Z,38.70
2019-04-05T04:44:04.594Z,36.77
2019-04-05T04:46:34.356Z,37.93
2019-04-05T04:49:04.495Z,36.57
2019-04-05T04:51:34.449Z,38.40
2019-04-05T04:54:04.261Z,42.97
2019-04-05T04:56:33.630Z,37.77
2019-04-05T04:59:02.951Z,43.37
2019-04-05T05:01:32.275Z,39.43
2019-04-05T05:04:01.586Z,37.93
2019-04-05T05:06:31.061Z,45.90
2019-04-05T05:09:00.523Z,37.53
2019-04-05T05:11:31.001Z,35.43
2019-04-05T05:14:00.297Z,38.13
2019-04-05T05:16:29.764Z,43.37
2019-04-05T05:19:01.144Z,38.53
2019-04-05T05:21:30.624Z,38.93
2019-04-05T05:24:00.029Z,44.67
2019-04-05T05:26:29.805Z,39.73
2019-04-05T05:28:59.560Z,44.70
2019-04-05T05:31:29.124Z,45.63
2019-04-05T05:33:58.441Z,39.33
2019-04-05T05:36:28.712Z,42.00
2019-04-05T05:38:58.183Z,40.30
2019-04-05T05:41:27.496Z,40.13
2019-04-05T05:43:56.798Z,44.07
2019-04-05T05:46:26.104Z,41.17
2019-04-05T05:48:56.373Z,40.60
2019-04-05T05:51:25.675Z,43.93
2019-04-05T05:53:54.996Z,43.57
2019-04-05T05:56:24.291Z,42.47
2019-04-05T05:58:58.894Z,47.87
2019-04-05T06:01:24.611Z,49.83
2019-04-05T06:03:54.946Z,43.90
2019-04-05T06:06:24.242Z,43.50
2019-04-05T06:08:53.539Z,44.13
2019-04-05T06:11:22.846Z,48.00
2019-04-05T06:13:52.144Z,46.07
2019-04-05T06:16:21.456Z,48.70
2019-04-05T06:18:50.763Z,51.40
2019-04-05T06:21:21.177Z,49.53
2019-04-05T06:23:50.484Z,50.57
2019-04-05T06:26:19.796Z,47.77
2019-04-05T06:28:49.209Z,42.07
2019-04-05T06:31:18.748Z,53.47
2019-04-05T06:33:49.147Z,47.90
2019-04-05T06:36:18.528Z,46.63
2019-04-05T06:38:47.824Z,49.50
2019-04-05T06:41:17.392Z,50.93
2019-04-05T06:43:46.683Z,53.90
2019-04-05T06:46:16.010Z,55.47
2019-04-05T06:48:45.313Z,45.50
2019-04-05T06:51:14.625Z,53.80
2019-04-05T06:53:43.932Z,48.13
2019-04-05T06:56:13.235Z,52.20
2019-04-05T06:58:46.223Z,46.13
2019-04-05T07:01:14.599Z,47.03
2019-04-05T07:03:43.922Z,48.60
2019-04-05T07:06:13.220Z,52.77
2019-04-05T07:08:53.081Z,51.27
2019-04-05T07:11:13.624Z,46.57
2019-04-05T07:13:44.968Z,49.40
2019-04-05T07:16:14.266Z,44.53
2019-04-05T07:18:43.565Z,49.93
2019-04-05T07:21:12.869Z,46.33
2019-04-05T07:23:43.306Z,49.60
2019-04-05T07:26:12.612Z,52.13
2019-04-05T07:28:41.915Z,46.03
2019-04-05T07:31:11.621Z,51.17
2019-04-05T07:33:40.925Z,47.93
2019-04-05T07:36:10.228Z,50.47
2019-04-05T07:38:39.536Z,47.23
2019-04-05T07:41:08.836Z,44.33
2019-04-05T07:43:38.152Z,44.17
2019-04-05T07:46:07.456Z,45.77
2019-04-05T07:48:44.578Z,52.37
2019-04-05T07:51:07.768Z,50.23
2019-04-05T07:53:37.071Z,46.50
2019-04-05T07:56:06.382Z,52.47
2019-04-05T07:58:35.680Z,45.57
2019-04-05T08:01:05.779Z,48.13
2019-04-05T08:03:35.111Z,44.40
2019-04-05T08:06:04.654Z,39.93
2019-04-05T08:08:37.032Z,43.17
2019-04-05T08:11:06.329Z,41.07
2019-04-05T08:13:38.293Z,42.07
2019-04-05T08:16:07.760Z,44.80
2019-04-05T08:18:37.079Z,45.50
2019-04-05T08:21:06.384Z,48.87
2019-04-05T08:23:35.688Z,38.97
2019-04-05T08:26:05.015Z,45.00
2019-04-05T08:28:34.322Z,44.67
2019-04-05T08:31:03.641Z,45.13
2019-04-05T08:33:32.936Z,46.27
2019-04-05T08:36:02.239Z,39.10
2019-04-05T08:38:31.607Z,36.60
2019-04-05T08:41:00.929Z,39.97
2019-04-05T08:43:30.233Z,43.13
2019-04-05T08:45:59.610Z,39.97
2019-04-05T08:48:28.916Z,37.20
2019-04-05T08:50:58.215Z,39.33
2019-04-05T08:53:27.606Z,36.50
2019-04-05T08:55:57.016Z,38.10
2019-04-05T08:58:33.427Z,34.63
2019-04-05T09:00:57.324Z,41.23
2019-04-05T09:03:26.624Z,40.17
2019-04-05T09:05:55.940Z,38.70
2019-04-05T09:08:25.412Z,38.47
2019-04-05T09:10:54.805Z,34.17
2019-04-05T09:13:24.228Z,35.70
2019-04-05T09:15:53.532Z,34.80
2019-04-05T09:18:23.379Z,38.47
2019-04-05T09:20:52.669Z,60.83
2019-04-05T09:23:22.595Z,49.67
2019-04-05T09:25:51.897Z,35.73
2019-04-05T09:28:21.915Z,43.67
2019-04-05T09:30:51.931Z,34.53
2019-04-05T09:33:21.491Z,34.93
2019-04-05T09:35:50.804Z,42.00
2019-04-05T09:38:20.111Z,38.20
2019-04-05T09:40:49.761Z,37.27
2019-04-05T09:43:19.963Z,37.37
2019-04-05T09:45:49.265Z,38.27
2019-04-05T09:48:18.563Z,38.47
2019-04-05T09:50:47.873Z,40.67
2019-04-05T09:53:29.765Z,36.17
2019-04-05T09:55:59.964Z,36.33
2019-04-05T09:58:29.268Z,39.43
2019-04-05T10:00:58.585Z,37.70
2019-04-05T10:03:27.883Z,36.50
2019-04-05T10:05:57.187Z,37.87
2019-04-05T10:08:26.498Z,67.20
2019-04-05T10:10:55.889Z,40.47
2019-04-05T10:13:26.164Z,38.17
2019-04-05T10:15:55.461Z,36.90
2019-04-05T10:18:24.764Z,38.53
2019-04-05T10:20:54.141Z,36.83
2019-04-05T10:23:23.454Z,38.00
2019-04-05T10:25:52.839Z,40.77
2019-04-05T10:28:22.182Z,41.10
2019-04-05T10:30:52.215Z,39.43
2019-04-05T10:33:22.677Z,35.93
2019-04-05T10:35:51.989Z,34.97
2019-04-05T10:38:21.293Z,36.70
2019-04-05T10:40:50.594Z,36.87
2019-04-05T10:43:19.915Z,35.57
2019-04-05T10:45:49.218Z,36.03
2019-04-05T10:48:18.520Z,36.10
2019-04-05T10:50:47.826Z,51.37
2019-04-05T10:53:17.144Z,43.53
2019-04-05T10:55:46.466Z,45.80
2019-04-05T10:58:15.757Z,43.83
2019-04-05T11:00:45.064Z,44.50
2019-04-05T11:03:14.400Z,46.40
2019-04-05T11:05:43.698Z,44.13
2019-04-05T11:08:13.525Z,46.77
2019-04-05T11:10:42.824Z,45.03
2019-04-05T11:13:12.124Z,43.57
2019-04-05T11:15:41.429Z,43.60
2019-04-05T11:18:10.729Z,43.80
2019-04-05T11:20:40.047Z,46.27
2019-04-05T11:23:09.353Z,45.27
2019-04-05T11:25:38.651Z,50.10
2019-04-05T11:28:07.959Z,52.33
2019-04-05T11:30:42.736Z,53.33
2019-04-05T11:33:12.497Z,54.83
2019-04-05T11:35:42.617Z,51.60
2019-04-05T11:38:13.659Z,50.60
2019-04-05T11:40:43.893Z,56.97
2019-04-05T11:43:13.313Z,49.00
2019-04-05T11:45:43.554Z,48.73
2019-04-05T11:48:13.124Z,53.43
2019-04-05T11:50:42.420Z,54.07
2019-04-05T11:53:11.721Z,56.27
2019-04-05T11:55:41.035Z,51.83
2019-04-05T11:58:10.353Z,59.10
2019-04-05T12:00:41.295Z,49.33
2019-04-05T12:03:12.144Z,63.87
2019-04-05T12:05:41.433Z,51.07
2019-04-05T12:08:10.756Z,43.43
2019-04-05T12:10:41.034Z,61.77
2019-04-05T12:13:10.340Z,54.23
2019-04-05T12:15:39.655Z,52.87
2019-04-05T12:18:08.967Z,56.23
2019-04-05T12:20:49.568Z,57.30
2019-04-05T12:23:09.256Z,52.33
2019-04-05T12:25:38.584Z,63.00
2019-04-05T12:28:10.557Z,67.33
2019-04-05T12:30:39.876Z,59.77
2019-04-05T12:33:14.502Z,61.53
2019-04-05T12:35:40.544Z,60.13
2019-04-05T12:38:11.016Z,53.27
2019-04-05T12:40:40.784Z,61.03
2019-04-05T12:43:13.415Z,64.83
2019-04-05T12:45:44.480Z,57.83
2019-04-05T12:48:15.622Z,53.20
2019-04-05T12:50:45.000Z,68.70
2019-04-05T12:53:15.200Z,59.70
2019-04-05T12:55:44.505Z,77.67
2019-04-05T12:58:13.972Z,232.67
2019-04-05T13:00:43.272Z,95.03
2019-04-05T13:03:12.576Z,82.73
2019-04-05T13:05:41.906Z,64.77
2019-04-05T13:08:11.209Z,64.23
2019-04-05T13:10:40.513Z,63.17
2019-04-05T13:13:09.891Z,59.20
2019-04-05T13:15:40.298Z,58.33
2019-04-05T13:18:09.998Z,71.90
2019-04-05T13:20:39.301Z,57.97
2019-04-05T13:23:08.596Z,63.97
2019-04-05T13:25:40.720Z,61.23
2019-04-05T13:28:13.640Z,67.27
2019-04-05T13:30:41.312Z,56.50
2019-04-05T13:33:10.688Z,65.97
2019-04-05T13:35:40.680Z,182.53
2019-04-05T13:38:10.017Z,104.10
2019-04-05T13:40:39.312Z,70.30
2019-04-05T13:43:08.623Z,71.57
2019-04-05T13:45:37.931Z,72.13
2019-04-05T13:48:09.081Z,63.03
2019-04-05T13:50:41.389Z,59.83
2019-04-05T13:53:11.824Z,68.43
2019-04-05T13:55:41.399Z,63.20
2019-04-05T14:00:41.801Z,60.27
2019-04-05T14:03:11.121Z,61.93
2019-04-05T14:05:41.244Z,61.03
2019-04-05T14:08:11.042Z,62.83
2019-04-05T14:10:41.888Z,59.13
2019-04-05T14:13:11.373Z,67.00
2019-04-05T14:15:42.350Z,69.97
2019-04-05T14:18:14.334Z,78.33
2019-04-05T14:20:42.701Z,96.03
2019-04-05T14:23:12.000Z,73.27
2019-04-05T14:25:41.305Z,67.77
2019-04-05T14:28:10.614Z,64.23
2019-04-05T14:30:39.931Z,59.83
2019-04-05T14:33:09.233Z,67.53
2019-04-05T14:35:38.629Z,66.90
2019-04-05T14:38:08.166Z,66.07
2019-04-05T14:40:37.476Z,68.63
2019-04-05T14:43:06.780Z,64.43
2019-04-05T14:45:36.081Z,73.00
2019-04-05T14:48:05.423Z,67.93
2019-04-05T14:50:34.720Z,73.87
2019-04-05T14:53:04.665Z,77.50
2019-04-05T14:55:33.971Z,64.07
2019-04-05T14:58:05.524Z,74.40
2019-04-05T15:00:34.411Z,84.50
2019-04-05T15:03:03.784Z,85.27
2019-04-05T15:05:33.093Z,74.67
2019-04-05T15:08:02.893Z,76.70
2019-04-05T15:10:32.196Z,84.73
2019-04-05T15:13:01.601Z,101.03
2019-04-05T15:15:31.889Z,82.87
2019-04-05T15:18:01.188Z,85.83
2019-04-05T15:20:30.538Z,76.47
2019-04-05T15:23:00.960Z,76.67
2019-04-05T15:25:30.272Z,74.43
2019-04-05T15:27:59.741Z,83.90
2019-04-05T15:30:29.039Z,225.57
2019-04-05T15:33:00.032Z,99.63
2019-04-05T15:35:29.756Z,94.33
2019-04-05T15:38:01.332Z,87.73
2019-04-05T15:40:31.696Z,95.10
2019-04-05T15:43:01.180Z,94.87
2019-04-05T15:45:30.532Z,82.73
2019-04-05T15:47:59.845Z,105.33
2019-04-05T15:50:29.154Z,92.83
2019-04-05T15:52:59.728Z,94.47
2019-04-05T15:55:29.502Z,94.83
2019-04-05T15:58:01.463Z,88.07
2019-04-05T16:00:40.594Z,94.73
2019-04-05T16:03:11.135Z,94.80
2019-04-05T16:05:40.737Z,86.97
2019-04-05T16:08:10.045Z,103.77
2019-04-05T16:10:39.359Z,216.43
2019-04-05T16:13:08.727Z,101.80
2019-04-05T16:15:38.064Z,84.43
2019-04-05T16:18:07.379Z,88.00
2019-04-05T16:20:36.683Z,81.03
2019-04-05T16:23:06.037Z,86.17
2019-04-05T16:25:36.184Z,85.47
2019-04-05T16:28:05.493Z,102.47
2019-04-05T16:30:35.760Z,98.27
2019-04-05T16:33:05.157Z,98.20
2019-04-05T16:35:34.448Z,97.10
2019-04-05T16:38:03.752Z,95.53
2019-04-05T16:40:34.440Z,98.63
2019-04-05T16:43:03.819Z,94.80
2019-04-05T16:45:33.137Z,90.80
2019-04-05T16:48:02.849Z,102.17
2019-04-05T16:50:32.147Z,90.97
2019-04-05T16:53:01.508Z,92.03
2019-04-05T16:55:30.806Z,98.17
2019-04-05T16:58:00.125Z,104.20
2019-04-05T17:00:30.597Z,105.40
2019-04-05T17:02:59.895Z,117.43
2019-04-05T17:05:29.208Z,106.30
2019-04-05T17:08:10.424Z,97.90
2019-04-05T17:10:39.719Z,88.40
2019-04-05T17:13:09.156Z,96.23
2019-04-05T17:15:38.469Z,100.33
2019-04-05T17:18:08.840Z,94.50
2019-04-05T17:20:38.747Z,164.17
2019-04-05T17:23:08.047Z,127.60
2019-04-05T17:25:37.355Z,105.93
2019-04-05T17:28:06.669Z,100.47
2019-04-05T17:30:36.446Z,104.53
2019-04-05T17:33:05.926Z,109.07
2019-04-05T17:35:35.226Z,114.33
2019-04-05T17:38:04.533Z,95.53
2019-04-05T17:40:33.932Z,241.47
2019-04-05T17:43:03.233Z,235.30
2019-04-05T17:45:32.656Z,109.83
2019-04-05T17:48:01.954Z,111.30
2019-04-05T17:50:33.897Z,119.80
2019-04-05T17:53:11.962Z,109.37
2019-04-05T17:55:34.641Z,105.43
2019-04-05T17:58:05.884Z,105.70
2019-04-05T18:00:36.328Z,114.07
2019-04-05T18:03:05.657Z,114.13
2019-04-05T18:05:35.141Z,114.00
2019-04-05T18:08:04.508Z,133.17
2019-04-05T18:10:33.918Z,107.23
2019-04-05T18:13:03.246Z,122.73
2019-04-05T18:15:32.961Z,110.10
2019-04-05T18:18:02.263Z,125.60
2019-04-05T18:20:31.577Z,117.50
2019-04-05T18:23:00.886Z,107.50
2019-04-05T18:25:30.196Z,123.87
2019-04-05T18:27:59.504Z,119.00
2019-04-05T18:30:28.817Z,132.17
2019-04-05T18:32:58.123Z,121.57
2019-04-05T18:35:28.408Z,126.47
2019-04-05T18:37:57.708Z,114.70
2019-04-05T18:40:39.253Z,112.60
2019-04-05T18:42:59.040Z,115.40
2019-04-05T18:45:28.343Z,122.40
2019-04-05T18:47:57.725Z,109.20
2019-04-05T18:50:27.032Z,115.17
2019-04-05T18:52:56.335Z,105.70
2019-04-05T18:55:25.652Z,116.70
2019-04-05T18:57:54.960Z,108.90
2019-04-05T19:00:25.932Z,116.73
2019-04-05T19:02:55.231Z,113.37
2019-04-05T19:05:24.536Z,103.80
2019-04-05T19:07:53.907Z,113.80
2019-04-05T19:10:36.230Z,119.47
2019-04-05T19:12:54.332Z,105.50
2019-04-05T19:15:23.801Z,109.90
2019-04-05T19:17:53.132Z,127.90
2019-04-05T19:20:22.735Z,112.93
2019-04-05T19:22:52.080Z,113.03
2019-04-05T19:25:21.393Z,112.20
2019-04-05T19:27:50.691Z,110.33
2019-04-05T19:50:31.775Z,113.43
2019-04-05T19:53:01.084Z,107.03
2019-04-05T19:55:30.395Z,111.23
2019-04-05T19:57:59.703Z,115.07
2019-04-05T20:00:29.014Z,104.60
2019-04-05T20:02:58.312Z,118.40
2019-04-05T20:05:27.615Z,108.97
2019-04-05T20:07:56.940Z,119.70
2019-04-05T20:10:26.244Z,125.73
2019-04-05T20:12:55.553Z,115.87
2019-04-05T20:15:24.857Z,105.70
2019-04-05T20:17:54.169Z,130.47
2019-04-05T20:20:23.486Z,116.70
2019-04-05T20:22:52.808Z,126.63
2019-04-05T20:25:22.184Z,113.70
2019-04-05T20:27:51.496Z,116.97
2019-04-05T20:30:20.886Z,124.87
2019-04-05T20:32:50.292Z,117.60
2019-04-05T20:35:19.596Z,117.37
2019-04-05T20:37:48.900Z,104.90
2019-04-05T20:40:18.216Z,108.90
2019-04-05T20:42:47.515Z,105.33
2019-04-05T20:45:16.842Z,108.70
2019-04-05T20:47:48.584Z,119.57
2019-04-05T20:50:18.292Z,117.50
2019-04-05T20:52:47.591Z,121.57
2019-04-05T20:55:16.931Z,110.43
2019-04-05T20:57:46.235Z,106.93
2019-04-05T21:00:17.363Z,113.20
2019-04-05T21:02:46.684Z,105.10
2019-04-05T21:05:24.699Z,102.80
2019-04-05T21:07:48.329Z,118.60
2019-04-05T21:10:17.629Z,122.60
2019-04-05T21:12:46.952Z,125.90
2019-04-05T21:15:16.247Z,131.33
2019-04-05T21:17:45.551Z,130.03
2019-04-05T21:20:15.140Z,124.53
2019-04-05T21:22:44.453Z,141.00
2019-04-05T21:25:14.316Z,116.90
2019-04-05T21:27:43.800Z,125.70
2019-04-05T21:30:13.740Z,135.00
2019-04-05T21:32:43.044Z,136.23
2019-04-05T21:35:13.430Z,133.17
2019-04-05T21:37:42.733Z,125.03
2019-04-05T21:40:12.516Z,126.63
2019-04-05T21:42:41.828Z,118.63
2019-04-05T21:45:11.303Z,137.03
2019-04-05T21:47:40.624Z,145.37
2019-04-05T21:50:11.476Z,128.57
2019-04-05T21:52:40.786Z,130.67
2019-04-05T21:55:10.155Z,125.33
2019-04-05T21:57:39.485Z,124.33
2019-04-05T22:00:14.607Z,129.40
2019-04-05T22:02:46.332Z,129.53
2019-04-05T22:05:15.641Z,136.77
2019-04-05T22:07:44.952Z,117.77
2019-04-05T22:10:14.432Z,138.40
2019-04-05T22:12:43.742Z,127.80
2019-04-05T22:15:13.056Z,130.97
2019-04-05T22:17:42.361Z,130.80
2019-04-05T22:20:11.673Z,123.87
2019-04-05T22:22:40.980Z,116.23
2019-04-05T22:25:10.640Z,133.73
2019-04-05T22:27:39.951Z,134.90
2019-04-05T22:30:10.592Z,134.57
2019-04-05T22:32:39.914Z,135.90
2019-04-05T22:35:09.235Z,131.00
2019-04-05T22:37:38.540Z,128.43
2019-04-05T22:40:07.912Z,138.20
2019-04-05T22:42:38.313Z,133.93
2019-04-05T22:45:08.187Z,133.70
2019-04-05T22:47:37.509Z,144.33
2019-04-05T22:50:07.347Z,132.67
2019-04-05T22:52:38.352Z,138.53
2019-04-05T22:55:11.519Z,140.77
2019-04-05T22:57:38.911Z,127.33
2019-04-05T23:00:09.848Z,134.93
2019-04-05T23:02:40.777Z,128.50
2019-04-05T23:05:10.486Z,135.60
2019-04-05T23:07:39.799Z,134.20
2019-04-05T23:10:09.532Z,127.83
2019-04-05T23:12:38.843Z,129.03
2019-04-05T23:15:08.697Z,138.57
2019-04-05T23:17:38.004Z,126.47
2019-04-05T23:20:08.449Z,134.87
2019-04-05T23:22:37.747Z,122.67
2019-04-05T23:25:07.904Z,120.60
2019-04-05T23:27:37.309Z,114.63
2019-04-05T23:30:07.368Z,116.47
2019-04-05T23:32:36.675Z,106.10
2019-04-05T23:35:07.211Z,112.87
2019-04-05T23:37:36.553Z,116.53
2019-04-05T23:40:06.328Z,117.80
2019-04-05T23:42:35.625Z,109.33
2019-04-05T23:45:06.379Z,120.80
2019-04-05T23:47:35.686Z,116.33
2019-04-05T23:50:05.851Z,107.57
2019-04-05T23:52:35.168Z,112.97
2019-04-05T23:55:06.460Z,118.23
2019-04-05T23:57:35.769Z,104.80
